Time;durP1;ratioP1;P1;durP2;ratioP2;P2;SDS_P1;SDS_P2;PMS_P1;PMS_P2;Temp;Humidity;BMP_temperature;BMP_pressure;BME280_temperature;BME280_humidity;BME280_pressure;Samples;Min_cycle;Max_cycle;Signal;HPM_P1;HPM_P2
2022/08/20 00:00:13;;;;;;;;;;;;;;;24.51;nan;101155.66;5063851;28;1384;-42
2022/08/20 00:02:41;;;;;;;;;;;;;;;24.54;nan;101152.75;5062322;28;1965;-47
2022/08/20 00:05:08;;;;;;;;;;;;;;;24.53;nan;101149.25;5063145;28;1557;-42
2022/08/20 00:07:35;;;;;;;;;;;;;;;24.53;nan;101153.75;5062921;28;1274;-40
2022/08/20 00:10:04;;;;;;;;;;;;;;;24.52;nan;101149.38;5061988;28;1297;-42
2022/08/20 00:12:32;;;;;;;;;;;;;;;24.50;nan;101146.81;5061347;28;1408;-45
2022/08/20 00:14:58;;;;;;;;;;;;;;;24.50;nan;101151.31;5062122;28;1322;-42
2022/08/20 00:17:25;;;;;;;;;;;;;;;24.53;nan;101151.91;5062246;28;1270;-44
2022/08/20 00:19:52;;;;;;;;;;;;;;;24.49;nan;101147.78;5063904;28;1306;-42
2022/08/20 00:22:19;;;;;;;;;;;;;;;24.45;nan;101149.84;5061934;28;1910;-41
2022/08/20 00:24:45;;;;;;;;;;;;;;;24.44;nan;101148.13;5062831;28;1265;-40
2022/08/20 00:27:12;;;;;;;;;;;;;;;24.51;nan;101147.66;5063836;28;1287;-41
2022/08/20 00:29:39;;;;;;;;;;;;;;;24.52;nan;101150.22;5061439;28;1238;-40
2022/08/20 00:32:05;;;;;;;;;;;;;;;24.48;nan;101148.75;5062278;28;1242;-41
2022/08/20 00:34:32;;;;;;;;;;;;;;;24.48;nan;101146.94;5062605;28;1375;-42
2022/08/20 00:36:59;;;;;;;;;;;;;;;24.50;nan;101143.31;5061809;28;1202;-43
2022/08/20 00:39:26;;;;;;;;;;;;;;;24.46;nan;101151.53;5064335;28;1297;-41
2022/08/20 00:41:52;;;;;;;;;;;;;;;24.47;nan;101152.38;5063704;28;1910;-40
2022/08/20 00:44:21;;;;;;;;;;;;;;;24.44;nan;101148.13;5065767;28;1381;-43
2022/08/20 00:46:48;;;;;;;;;;;;;;;24.44;nan;101150.78;5064979;28;1329;-41
2022/08/20 00:49:19;;;;;;;;;;;;;;;24.47;nan;101153.22;5061366;28;1270;-40
2022/08/20 00:51:49;;;;;;;;;;;;;;;24.41;nan;101150.16;5063948;28;1258;-41
2022/08/20 00:54:23;;;;;;;;;;;;;;;24.42;nan;101144.75;5063663;28;1335;-39
2022/08/20 00:57:02;;;;;;;;;;;;;;;24.43;nan;101150.91;5065841;28;1257;-40
2022/08/20 00:59:30;;;;;;;;;;;;;;;24.42;nan;101144.75;5062737;28;1464;-41
2022/08/20 01:01:58;;;;;;;;;;;;;;;24.35;nan;101148.81;5061196;28;1902;-42
2022/08/20 01:04:26;;;;;;;;;;;;;;;24.31;nan;101146.50;5062611;28;1279;-40
2022/08/20 01:06:53;;;;;;;;;;;;;;;24.27;nan;101150.34;5068567;28;1262;-40
2022/08/20 01:09:20;;;;;;;;;;;;;;;24.28;nan;101158.22;5065802;28;1313;-41
2022/08/20 01:11:59;;;;;;;;;;;;;;;24.33;nan;101155.22;5062554;28;1598;-42
2022/08/20 01:16:58;;;;;;;;;;;;;;;24.31;nan;101154.50;5064532;28;1336;-45
2022/08/20 01:19:46;;;;;;;;;;;;;;;24.31;nan;101147.34;5061334;28;1288;-41
2022/08/20 01:25:06;;;;;;;;;;;;;;;24.29;nan;101148.41;5062551;28;1445;-41
2022/08/20 01:27:33;;;;;;;;;;;;;;;24.27;nan;101145.03;5062743;28;1565;-41
2022/08/20 01:30:01;;;;;;;;;;;;;;;24.28;nan;101146.72;5061220;28;1544;-41
2022/08/20 01:32:32;;;;;;;;;;;;;;;24.27;nan;101145.03;5060564;28;1394;-41
2022/08/20 01:34:59;;;;;;;;;;;;;;;24.27;nan;101140.56;5061219;28;1251;-45
2022/08/20 01:37:26;;;;;;;;;;;;;;;24.29;nan;101137.75;5061305;28;1337;-41
2022/08/20 01:39:57;;;;;;;;;;;;;;;24.31;nan;101147.34;5062722;28;1329;-44
2022/08/20 01:42:30;;;;;;;;;;;;;;;24.35;nan;101142.63;5060935;28;1914;-45
2022/08/20 01:44:57;;;;;;;;;;;;;;;24.38;nan;101137.06;5060809;28;1309;-43
2022/08/20 01:47:25;;;;;;;;;;;;;;;24.35;nan;101147.94;5061570;28;1312;-47
2022/08/20 01:49:54;;;;;;;;;;;;;;;24.38;nan;101145.91;5062213;28;1258;-44
2022/08/20 01:52:26;;;;;;;;;;;;;;;24.39;nan;101141.44;5059095;28;1270;-44
2022/08/20 01:54:53;;;;;;;;;;;;;;;24.39;nan;101142.31;5062444;28;1266;-43
2022/08/20 01:57:25;;;;;;;;;;;;;;;24.37;nan;101138.91;5060596;28;1332;-44
2022/08/20 01:59:52;;;;;;;;;;;;;;;24.33;nan;101140.09;5060416;28;1261;-46
2022/08/20 02:02:20;;;;;;;;;;;;;;;24.33;nan;101136.56;5061921;28;1970;-46
2022/08/20 02:04:47;;;;;;;;;;;;;;;24.32;nan;101130.41;5061779;28;1314;-40
2022/08/20 02:07:17;;;;;;;;;;;;;;;24.35;nan;101132.84;5060029;28;1363;-42
2022/08/20 02:09:43;;;;;;;;;;;;;;;24.38;nan;101132.59;5061407;28;1679;-41
2022/08/20 02:12:13;;;;;;;;;;;;;;;24.38;nan;101129.94;5062131;28;1443;-45
2022/08/20 02:14:45;;;;;;;;;;;;;;;24.35;nan;101131.97;5060464;28;1313;-43
2022/08/20 02:17:13;;;;;;;;;;;;;;;24.39;nan;101133.47;5060185;28;1363;-41
2022/08/20 02:19:49;;;;;;;;;;;;;;;24.39;nan;101128.13;5061532;28;1238;-41
2022/08/20 02:22:34;;;;;;;;;;;;;;;24.39;nan;101122.81;5061979;28;1906;-43
2022/08/20 02:25:01;;;;;;;;;;;;;;;24.39;nan;101121.00;5060916;28;1266;-42
2022/08/20 02:27:28;;;;;;;;;;;;;;;24.41;nan;101116.41;5060719;28;1305;-42
2022/08/20 02:29:54;;;;;;;;;;;;;;;24.42;nan;101115.44;5062329;28;1278;-46
2022/08/20 02:32:21;;;;;;;;;;;;;;;24.43;nan;101106.50;5060396;28;1367;-47
2022/08/20 02:34:57;;;;;;;;;;;;;;;24.35;nan;101106.22;5064458;28;1168;-44
2022/08/20 02:37:24;;;;;;;;;;;;;;;24.41;nan;101110.22;5065164;28;1331;-42
2022/08/20 02:39:51;;;;;;;;;;;;;;;24.42;nan;101110.13;5066066;28;1218;-39
2022/08/20 02:42:18;;;;;;;;;;;;;;;24.40;nan;101108.53;5066935;28;1918;-47
2022/08/20 02:44:45;;;;;;;;;;;;;;;24.42;nan;101110.13;5063899;28;1313;-40
2022/08/20 02:47:11;;;;;;;;;;;;;;;24.40;nan;101109.41;5065895;28;1287;-41
2022/08/20 02:49:38;;;;;;;;;;;;;;;24.40;nan;101103.22;5064081;28;1238;-43
2022/08/20 02:52:05;;;;;;;;;;;;;;;24.41;nan;101108.41;5065122;28;1362;-40
2022/08/20 02:54:32;;;;;;;;;;;;;;;24.40;nan;101105.88;5065798;28;1308;-36
2022/08/20 02:56:59;;;;;;;;;;;;;;;24.44;nan;101104.66;5064203;28;1345;-41
2022/08/20 02:59:25;;;;;;;;;;;;;;;24.44;nan;101110.84;5064642;28;1274;-41
2022/08/20 03:01:52;;;;;;;;;;;;;;;24.39;nan;101105.03;5065478;28;1906;-40
2022/08/20 03:04:25;;;;;;;;;;;;;;;24.38;nan;101105.97;5064740;28;1277;-41
2022/08/20 03:06:51;;;;;;;;;;;;;;;24.10;nan;101108.97;5064170;28;1270;-34
2022/08/20 03:09:18;;;;;;;;;;;;;;;24.11;nan;101101.84;5063684;28;1263;-34
2022/08/20 03:11:45;;;;;;;;;;;;;;;23.97;nan;101104.66;5064255;28;1179;-36
2022/08/20 03:14:11;;;;;;;;;;;;;;;24.06;nan;101099.50;5065425;28;1386;-36
2022/08/20 03:16:38;;;;;;;;;;;;;;;24.07;nan;101105.69;5063753;28;1285;-35
2022/08/20 03:19:05;;;;;;;;;;;;;;;23.78;nan;101107.81;5064723;28;1339;-35
2022/08/20 03:21:32;;;;;;;;;;;;;;;23.69;nan;101113.78;5065756;28;1265;-36
2022/08/20 03:23:58;;;;;;;;;;;;;;;23.80;nan;101105.91;5063483;28;1910;-36
2022/08/20 03:26:25;;;;;;;;;;;;;;;23.67;nan;101113.06;5064262;28;1274;-37
2022/08/20 03:28:52;;;;;;;;;;;;;;;23.80;nan;101105.91;5064042;28;1363;-36
2022/08/20 03:31:19;;;;;;;;;;;;;;;23.70;nan;101102.19;5065559;28;1333;-36
2022/08/20 03:33:46;;;;;;;;;;;;;;;23.61;nan;101105.53;5064760;28;1328;-36
2022/08/20 03:36:19;;;;;;;;;;;;;;;23.68;nan;101102.28;5063638;28;1302;-36
2022/08/20 03:38:46;;;;;;;;;;;;;;;23.63;nan;101100.94;5064269;28;1344;-34
2022/08/20 03:41:12;;;;;;;;;;;;;;;23.60;nan;101109.13;5065450;28;1289;-35
2022/08/20 03:43:40;;;;;;;;;;;;;;;23.67;nan;101110.41;5063118;28;1941;-34
2022/08/20 03:46:07;;;;;;;;;;;;;;;23.65;nan;101115.81;5064011;28;1313;-35
2022/08/20 03:48:48;;;;;;;;;;;;;;;23.59;nan;101115.44;5063888;28;1309;-35
2022/08/20 03:51:15;;;;;;;;;;;;;;;23.60;nan;101111.78;5065031;28;1265;-36
2022/08/20 03:53:42;;;;;;;;;;;;;;;23.65;nan;101115.00;5063251;28;1351;-35
2022/08/20 03:56:08;;;;;;;;;;;;;;;23.60;nan;101120.63;5063391;28;1325;-36
2022/08/20 03:58:35;;;;;;;;;;;;;;;23.48;nan;101112.66;5064802;28;1334;-36
2022/08/20 04:01:02;;;;;;;;;;;;;;;23.65;nan;101109.66;5063585;28;1282;-35
2022/08/20 04:03:29;;;;;;;;;;;;;;;23.51;nan;101118.63;5063045;28;1917;-36
2022/08/20 04:05:56;;;;;;;;;;;;;;;23.52;nan;101108.84;5064674;28;1442;-36
2022/08/20 04:08:25;;;;;;;;;;;;;;;23.57;nan;101112.00;5063246;28;1270;-35
2022/08/20 04:10:53;;;;;;;;;;;;;;;23.52;nan;101108.84;5062891;28;1278;-35
2022/08/20 04:13:22;;;;;;;;;;;;;;;23.46;nan;101104.81;5063676;28;1372;-35
2022/08/20 04:15:49;;;;;;;;;;;;;;;23.44;nan;101105.88;5064695;28;1293;-35
2022/08/20 04:18:22;;;;;;;;;;;;;;;23.37;nan;101111.59;5065037;28;1336;-35
2022/08/20 04:20:50;;;;;;;;;;;;;;;23.36;nan;101104.56;5067099;28;1296;-36
2022/08/20 04:23:17;;;;;;;;;;;;;;;23.33;nan;101115.44;5064871;28;1914;-36
2022/08/20 04:25:45;;;;;;;;;;;;;;;23.29;nan;101105.97;5063007;28;1265;-36
2022/08/20 04:28:23;;;;;;;;;;;;;;;23.34;nan;101105.66;5062769;28;1302;-36
2022/08/20 04:30:51;;;;;;;;;;;;;;;23.35;nan;101120.63;5064351;28;1287;-36
2022/08/20 04:33:23;;;;;;;;;;;;;;;23.42;nan;101118.41;5059572;28;1297;-33
2022/08/20 04:36:01;;;;;;;;;;;;;;;23.44;nan;101120.00;5054520;28;637;-34
2022/08/20 04:38:28;;;;;;;;;;;;;;;23.43;nan;101133.41;5054540;28;1177;-34
2022/08/20 04:41:13;;;;;;;;;;;;;;;23.43;nan;101131.63;5059254;28;691;-35
2022/08/20 04:43:49;;;;;;;;;;;;;;;23.41;nan;101132.69;5074588;28;1984;-34
2022/08/20 04:46:15;;;;;;;;;;;;;;;23.44;nan;101132.47;5074620;28;717;-34
2022/08/20 04:48:42;;;;;;;;;;;;;;;23.33;nan;101134.03;5074253;28;1306;-34
2022/08/20 04:51:14;;;;;;;;;;;;;;;23.30;nan;101139.56;5074232;28;683;-35
2022/08/20 04:53:41;;;;;;;;;;;;;;;23.32;nan;101139.44;5074257;28;1217;-35
2022/08/20 04:56:08;;;;;;;;;;;;;;;23.31;nan;101141.28;5073896;28;743;-35
2022/08/20 04:58:36;;;;;;;;;;;;;;;23.28;nan;101138.84;5074325;28;1212;-35
2022/08/20 05:01:05;;;;;;;;;;;;;;;23.28;nan;101138.84;5074255;28;906;-35
2022/08/20 05:03:31;;;;;;;;;;;;;;;23.27;nan;101149.56;5072639;28;1916;-35
2022/08/20 05:06:00;;;;;;;;;;;;;;;23.29;nan;101147.63;5072106;28;1159;-35
2022/08/20 05:08:27;;;;;;;;;;;;;;;23.27;nan;101146.91;5072009;28;1201;-35
2022/08/20 05:10:54;;;;;;;;;;;;;;;23.26;nan;101148.69;5072099;28;986;-35
2022/08/20 05:13:21;;;;;;;;;;;;;;;23.24;nan;101144.47;5071967;28;1395;-35
2022/08/20 05:15:53;;;;;;;;;;;;;;;23.22;nan;101144.53;5072285;28;1088;-35
2022/08/20 05:18:21;;;;;;;;;;;;;;;23.28;nan;101143.28;5071856;28;1327;-35
2022/08/20 05:20:48;;;;;;;;;;;;;;;23.27;nan;101141.59;5072797;28;1185;-35
2022/08/20 05:23:16;;;;;;;;;;;;;;;23.30;nan;101147.53;5073980;28;1984;-35
2022/08/20 05:25:44;;;;;;;;;;;;;;;23.33;nan;101144.66;5074258;28;1141;-35
2022/08/20 05:28:15;;;;;;;;;;;;;;;23.30;nan;101146.69;5073248;28;1201;-36
2022/08/20 05:30:43;;;;;;;;;;;;;;;23.32;nan;101150.94;5073864;28;1168;-34
2022/08/20 05:33:10;;;;;;;;;;;;;;;23.35;nan;101148.06;5073581;28;1197;-34
2022/08/20 05:35:37;;;;;;;;;;;;;;;23.37;nan;101143.50;5073489;28;1174;-36
2022/08/20 05:38:05;;;;;;;;;;;;;;;23.35;nan;101150.72;5073139;28;1164;-34
2022/08/20 05:40:32;;;;;;;;;;;;;;;23.44;nan;101148.44;5072000;28;931;-34
2022/08/20 05:42:59;;;;;;;;;;;;;;;23.44;nan;101149.25;5071584;28;1910;-36
2022/08/20 05:45:26;;;;;;;;;;;;;;;23.47;nan;101138.41;5072047;28;1126;-36
2022/08/20 05:47:54;;;;;;;;;;;;;;;23.49;nan;101140.97;5072883;28;1233;-35
2022/08/20 05:50:22;;;;;;;;;;;;;;;23.39;nan;101149.59;5072657;28;1134;-34
2022/08/20 05:52:49;;;;;;;;;;;;;;;23.44;nan;101145.75;5072243;28;1323;-34
2022/08/20 05:55:16;;;;;;;;;;;;;;;23.54;nan;101144.13;5073072;28;1108;-34
2022/08/20 05:57:44;;;;;;;;;;;;;;;23.46;nan;101143.84;5073402;28;1229;-35
2022/08/20 06:00:12;;;;;;;;;;;;;;;23.55;nan;101140.53;5073718;28;928;-35
2022/08/20 06:05:24;;;;;;;;;;;;;;;23.55;nan;101138.72;5072724;28;1041;-35
2022/08/20 06:07:51;;;;;;;;;;;;;;;23.62;nan;101147.13;5073566;28;1275;-35
2022/08/20 06:10:20;;;;;;;;;;;;;;;23.65;nan;101145.06;5077658;28;1128;-35
2022/08/20 06:12:46;;;;;;;;;;;;;;;23.70;nan;101147.41;5077342;28;1232;-35
2022/08/20 06:15:13;;;;;;;;;;;;;;;23.70;nan;101148.28;5077835;28;1038;-34
2022/08/20 06:17:40;;;;;;;;;;;;;;;23.70;nan;101147.41;5076251;28;1220;-34
2022/08/20 06:20:07;;;;;;;;;;;;;;;23.74;nan;101154.22;5077351;28;1040;-34
2022/08/20 06:22:34;;;;;;;;;;;;;;;23.80;nan;101145.81;5077212;28;1995;-35
2022/08/20 06:25:01;;;;;;;;;;;;;;;23.80;nan;101145.81;5077364;28;1148;-35
2022/08/20 06:27:28;;;;;;;;;;;;;;;23.76;nan;101150.50;5076909;28;1194;-35
2022/08/20 06:29:54;;;;;;;;;;;;;;;23.82;nan;101149.19;5075821;28;1049;-35
2022/08/20 06:32:23;;;;;;;;;;;;;;;23.85;nan;101155.16;5076822;28;1308;-35
2022/08/20 06:34:57;;;;;;;;;;;;;;;23.85;nan;101143.66;5077017;28;1081;-36
2022/08/20 06:37:25;;;;;;;;;;;;;;;23.93;nan;101151.91;5076979;28;1554;-35
2022/08/20 06:39:59;;;;;;;;;;;;;;;24.02;nan;101153.91;5077142;28;1107;-35
2022/08/20 06:42:26;;;;;;;;;;;;;;;24.07;nan;101146.47;5076843;28;1287;-35
2022/08/20 06:44:52;;;;;;;;;;;;;;;24.11;nan;101147.09;5076791;28;1973;-35
2022/08/20 06:47:19;;;;;;;;;;;;;;;24.12;nan;101152.31;5076654;28;1208;-35
2022/08/20 06:49:47;;;;;;;;;;;;;;;24.18;nan;101157.19;5077020;28;1023;-35
2022/08/20 06:52:16;;;;;;;;;;;;;;;24.22;nan;101155.16;5076836;28;1311;-36
2022/08/20 06:54:44;;;;;;;;;;;;;;;24.26;nan;101156.63;5076714;28;1030;-35
2022/08/20 06:57:11;;;;;;;;;;;;;;;24.18;nan;101159.88;5076571;28;1307;-35
2022/08/20 06:59:38;;;;;;;;;;;;;;;24.24;nan;101159.41;5076526;28;1045;-35
2022/08/20 07:02:05;;;;;;;;;;;;;;;24.22;nan;101160.50;5076490;28;857;-34
2022/08/20 07:04:32;;;;;;;;;;;;;;;24.31;nan;101162.47;5076410;28;1909;-35
2022/08/20 07:06:58;;;;;;;;;;;;;;;24.28;nan;101160.91;5076619;28;969;-34
2022/08/20 07:09:25;;;;;;;;;;;;;;;24.35;nan;101156.78;5076483;28;1209;-35
2022/08/20 07:11:52;;;;;;;;;;;;;;;24.33;nan;101150.75;5075677;28;1460;-35
2022/08/20 07:14:19;;;;;;;;;;;;;;;24.39;nan;101158.28;5075704;28;1478;-34
2022/08/20 07:16:46;;;;;;;;;;;;;;;24.42;nan;101163.38;5082292;28;1563;-34
2022/08/20 07:19:13;;;;;;;;;;;;;;;24.45;nan;101160.47;5071054;28;1385;-35
2022/08/20 07:21:40;;;;;;;;;;;;;;;24.48;nan;101162.06;5075094;28;740;-34
2022/08/20 07:24:08;;;;;;;;;;;;;;;24.56;nan;101161.50;5075907;28;1910;-34
2022/08/20 07:26:35;;;;;;;;;;;;;;;24.55;nan;101155.31;5057727;28;750;-35
2022/08/20 07:29:02;;;;;;;;;;;;;;;24.60;nan;101158.47;5055819;28;1200;-35
2022/08/20 07:34:14;;;;;;;;;;;;;;;24.70;nan;101159.50;5055778;28;1276;-34
2022/08/20 07:36:42;;;;;;;;;;;;;;;24.67;nan;101157.06;5055643;28;961;-34
2022/08/20 07:39:09;;;;;;;;;;;;;;;24.68;nan;101155.25;5069316;28;1217;-35
2022/08/20 07:41:35;;;;;;;;;;;;;;;24.64;nan;101156.44;5075731;28;827;-35
2022/08/20 07:44:03;;;;;;;;;;;;;;;24.68;nan;101147.25;5075666;28;1981;-35
2022/08/20 07:46:30;;;;;;;;;;;;;;;24.81;nan;101161.38;5075343;28;668;-35
2022/08/20 07:48:57;;;;;;;;;;;;;;;24.79;nan;101164.13;5075321;28;1355;-35
2022/08/20 07:51:24;;;;;;;;;;;;;;;24.79;nan;101163.28;5075475;28;739;-35
2022/08/20 07:53:51;;;;;;;;;;;;;;;24.75;nan;101161.81;5075083;28;1259;-33
2022/08/20 07:56:20;;;;;;;;;;;;;;;24.93;nan;101161.28;5075343;28;1221;-34
2022/08/20 07:58:49;;;;;;;;;;;;;;;24.97;nan;101162.75;5075543;28;1197;-34
2022/08/20 08:01:20;;;;;;;;;;;;;;;25.05;nan;101164.81;5075154;28;903;-35
2022/08/20 08:03:47;;;;;;;;;;;;;;;25.09;nan;101160.09;5073982;28;1989;-35
2022/08/20 08:06:17;;;;;;;;;;;;;;;25.28;nan;101163.91;5074954;28;745;-35
2022/08/20 08:08:53;;;;;;;;;;;;;;;25.11;nan;101164.34;5075003;28;1366;-35
2022/08/20 08:11:20;;;;;;;;;;;;;;;25.09;nan;101168.97;5074946;28;886;-34
2022/08/20 08:13:47;;;;;;;;;;;;;;;25.14;nan;101164.13;5074562;28;1237;-33
2022/08/20 08:16:14;;;;;;;;;;;;;;;25.27;nan;101167.53;5075043;28;870;-33
2022/08/20 08:18:43;;;;;;;;;;;;;;;25.26;nan;101170.34;5073378;28;1208;-34
2022/08/20 08:21:11;;;;;;;;;;;;;;;25.19;nan;101169.09;5074917;28;957;-34
2022/08/20 08:23:42;;;;;;;;;;;;;;;25.24;nan;101167.78;5074136;28;1914;-34
2022/08/20 08:26:13;;;;;;;;;;;;;;;25.25;nan;101177.47;5074456;28;691;-34
2022/08/20 08:28:43;;;;;;;;;;;;;;;25.34;nan;101176.75;5074749;28;1228;-36
2022/08/20 08:31:10;;;;;;;;;;;;;;;25.34;nan;101176.75;5073541;28;784;-35
2022/08/20 08:33:37;;;;;;;;;;;;;;;25.34;nan;101176.75;5074045;28;1224;-35
2022/08/20 08:36:06;;;;;;;;;;;;;;;25.33;nan;101177.72;5074371;28;823;-35
2022/08/20 08:38:34;;;;;;;;;;;;;;;25.35;nan;101180.28;5074210;28;1153;-35
2022/08/20 08:41:06;;;;;;;;;;;;;;;25.44;nan;101179.56;5074134;28;1000;-36
2022/08/20 08:43:33;;;;;;;;;;;;;;;25.50;nan;101176.44;5073748;28;1993;-36
2022/08/20 08:46:02;;;;;;;;;;;;;;;25.41;nan;101172.63;5074351;28;731;-40
2022/08/20 08:48:31;;;;;;;;;;;;;;;25.48;nan;101173.88;5074031;28;1196;-35
2022/08/20 08:50:59;;;;;;;;;;;;;;;25.52;nan;101167.34;5074309;28;752;-34
2022/08/20 08:53:29;;;;;;;;;;;;;;;25.54;nan;101165.41;5073967;28;1303;-34
2022/08/20 08:55:57;;;;;;;;;;;;;;;25.57;nan;101158.13;5074193;28;888;-36
2022/08/20 08:58:24;;;;;;;;;;;;;;;25.52;nan;101164.69;5073487;28;1205;-35
2022/08/20 09:00:50;;;;;;;;;;;;;;;25.75;nan;101153.97;5073061;28;1378;-36
2022/08/20 09:03:28;;;;;;;;;;;;;;;25.65;nan;101158.38;5073338;28;1902;-34
2022/08/20 09:05:58;;;;;;;;;;;;;;;25.61;nan;101154.25;5074009;28;1294;-34
2022/08/20 09:08:35;;;;;;;;;;;;;;;25.68;nan;101150.13;5069259;28;1441;-34
2022/08/20 09:11:04;;;;;;;;;;;;;;;25.94;nan;101151.53;5077315;28;692;-35
2022/08/20 09:13:31;;;;;;;;;;;;;;;25.72;nan;101147.06;5072219;28;1730;-35
2022/08/20 09:15:57;;;;;;;;;;;;;;;25.82;nan;101147.19;5069403;28;1487;-34
2022/08/20 09:18:24;;;;;;;;;;;;;;;25.90;nan;101155.44;5051408;28;1308;-34
2022/08/20 09:20:52;;;;;;;;;;;;;;;25.81;nan;101161.50;5052791;28;1176;-35
2022/08/20 09:23:19;;;;;;;;;;;;;;;25.79;nan;101158.97;5052417;28;1291;-33
2022/08/20 09:25:45;;;;;;;;;;;;;;;25.79;nan;101145.63;5067769;28;1971;-32
2022/08/20 09:28:12;;;;;;;;;;;;;;;25.82;nan;101149.88;5072051;28;1323;-34
2022/08/20 09:30:39;;;;;;;;;;;;;;;25.79;nan;101152.78;5072331;28;1325;-40
2022/08/20 09:33:06;;;;;;;;;;;;;;;25.82;nan;101155.19;5072027;28;1280;-39
2022/08/20 09:35:33;;;;;;;;;;;;;;;25.91;nan;101155.31;5072333;28;1239;-43
2022/08/20 09:38:00;;;;;;;;;;;;;;;25.93;nan;101157.88;5059605;28;1321;-40
2022/08/20 09:40:26;;;;;;;;;;;;;;;26.08;nan;101145.94;5052471;28;1044;-44
2022/08/20 09:42:53;;;;;;;;;;;;;;;25.96;nan;101146.94;5051313;28;1296;-41
2022/08/20 09:45:20;;;;;;;;;;;;;;;26.00;nan;101146.56;5051999;28;1912;-43
2022/08/20 09:47:47;;;;;;;;;;;;;;;26.02;nan;101149.94;5051820;28;1321;-38
2022/08/20 09:50:21;;;;;;;;;;;;;;;26.26;nan;101147.16;5051968;28;1121;-43
2022/08/20 09:52:51;;;;;;;;;;;;;;;26.06;nan;101145.22;5051823;28;1229;-45
2022/08/20 09:55:21;;;;;;;;;;;;;;;26.07;nan;101136.22;5051451;28;1030;-40
2022/08/20 09:57:49;;;;;;;;;;;;;;;26.04;nan;101141.81;5050274;28;1216;-42
2022/08/20 10:00:17;;;;;;;;;;;;;;;26.08;nan;101141.44;5052257;28;1588;-41
2022/08/20 10:02:44;;;;;;;;;;;;;;;26.12;nan;101142.03;5067569;28;1359;-44
2022/08/20 10:05:11;;;;;;;;;;;;;;;26.23;nan;101143.88;5055573;28;1977;-39
2022/08/20 10:07:38;;;;;;;;;;;;;;;26.15;nan;101141.81;5061217;28;1541;-41
2022/08/20 10:10:07;;;;;;;;;;;;;;;26.16;nan;101135.50;5080125;28;1082;-44
2022/08/20 10:12:34;;;;;;;;;;;;;;;26.18;nan;101141.56;5083831;28;1547;-46
2022/08/20 10:15:01;;;;;;;;;;;;;;;26.16;nan;101130.16;5071421;28;1479;-44
2022/08/20 10:17:28;;;;;;;;;;;;;;;26.08;nan;101133.41;5069893;28;1201;-41
2022/08/20 10:19:54;;;;;;;;;;;;;;;26.27;nan;101127.44;5068974;28;899;-45
2022/08/20 10:22:21;;;;;;;;;;;;;;;26.30;nan;101123.69;5068411;28;1568;-40
2022/08/20 10:24:48;;;;;;;;;;;;;;;26.20;nan;101120.94;5054057;28;1914;-41
2022/08/20 10:27:15;;;;;;;;;;;;;;;26.38;nan;101122.09;5060734;28;1506;-37
2022/08/20 10:29:41;;;;;;;;;;;;;;;26.47;nan;101121.31;5073415;28;1024;-41
2022/08/20 10:32:13;;;;;;;;;;;;;;;26.60;nan;101121.97;5071735;28;1363;-40
2022/08/20 10:34:42;;;;;;;;;;;;;;;26.86;nan;101116.28;5072388;28;1106;-44
2022/08/20 10:37:09;;;;;;;;;;;;;;;26.45;nan;101117.06;5067719;28;1565;-44
2022/08/20 10:39:36;;;;;;;;;;;;;;;26.60;nan;101110.44;5092627;28;1120;-44
2022/08/20 10:42:02;;;;;;;;;;;;;;;26.82;nan;101112.16;5092751;28;920;-46
2022/08/20 10:44:29;;;;;;;;;;;;;;;26.79;nan;101112.41;5080825;28;1914;-44
2022/08/20 10:46:56;;;;;;;;;;;;;;;26.61;nan;101117.47;5071956;28;841;-45
2022/08/20 10:49:22;;;;;;;;;;;;;;;26.47;nan;101118.66;5072503;28;1217;-44
2022/08/20 10:51:49;;;;;;;;;;;;;;;26.54;nan;101119.81;5072184;28;790;-45
2022/08/20 10:54:16;;;;;;;;;;;;;;;26.55;nan;101118.84;5073266;28;1304;-42
2022/08/20 10:56:43;;;;;;;;;;;;;;;26.68;nan;101115.13;5078201;28;741;-45
2022/08/20 10:59:09;;;;;;;;;;;;;;;26.66;nan;101119.78;5096418;28;1342;-42
2022/08/20 11:01:36;;;;;;;;;;;;;;;26.82;nan;101109.50;5096477;28;740;-46
2022/08/20 11:04:03;;;;;;;;;;;;;;;26.59;nan;101109.59;5096372;28;2004;-43
2022/08/20 11:06:30;;;;;;;;;;;;;;;26.85;nan;101110.09;5096073;28;756;-41
2022/08/20 11:08:57;;;;;;;;;;;;;;;26.84;nan;101108.38;5083450;28;1406;-44
2022/08/20 11:11:23;;;;;;;;;;;;;;;26.67;nan;101103.59;5071821;28;1448;-44
2022/08/20 11:13:50;;;;;;;;;;;;;;;26.52;nan;101102.22;5076651;28;1459;-44
2022/08/20 11:16:17;;;;;;;;;;;;;;;26.77;nan;101101.84;5072407;28;869;-42
2022/08/20 11:18:44;;;;;;;;;;;;;;;26.73;nan;101104.91;5072907;28;1201;-43
2022/08/20 11:21:12;;;;;;;;;;;;;;;26.66;nan;101103.75;5073680;28;950;-44
2022/08/20 11:23:39;;;;;;;;;;;;;;;26.58;nan;101097.22;5067151;28;1268;-39
2022/08/20 11:26:06;;;;;;;;;;;;;;;26.76;nan;101107.31;5054109;28;1977;-44
2022/08/20 11:28:33;;;;;;;;;;;;;;;26.86;nan;101090.41;5071861;28;1537;-42
2022/08/20 11:31:00;;;;;;;;;;;;;;;27.18;nan;101095.63;5054250;28;1260;-44
2022/08/20 11:33:27;;;;;;;;;;;;;;;26.82;nan;101077.41;5053652;28;1283;-43
2022/08/20 11:35:54;;;;;;;;;;;;;;;26.82;nan;101088.09;5054120;28;1181;-42
2022/08/20 11:38:20;;;;;;;;;;;;;;;26.78;nan;101078.66;5053297;28;1288;-44
2022/08/20 11:40:47;;;;;;;;;;;;;;;26.85;nan;101079.84;5054042;28;1313;-43
2022/08/20 11:43:14;;;;;;;;;;;;;;;26.78;nan;101073.31;5053602;28;1321;-43
2022/08/20 11:45:44;;;;;;;;;;;;;;;26.82;nan;101072.06;5053870;28;1979;-43
2022/08/20 11:48:10;;;;;;;;;;;;;;;26.99;nan;101066.13;5053354;28;1311;-43
2022/08/20 11:50:37;;;;;;;;;;;;;;;27.14;nan;101060.31;5053643;28;1292;-44
2022/08/20 11:53:04;;;;;;;;;;;;;;;27.37;nan;101057.41;5052178;28;1292;-45
2022/08/20 11:55:30;;;;;;;;;;;;;;;27.11;nan;101051.69;5053609;28;1049;-44
2022/08/20 11:57:58;;;;;;;;;;;;;;;26.94;nan;101049.63;5057197;28;1616;-42
2022/08/20 12:00:26;;;;;;;;;;;;;;;27.82;nan;101041.78;5053513;28;1166;-43
2022/08/20 12:02:57;;;;;;;;;;;;;;;27.53;nan;101047.09;5054797;28;1765;-41
2022/08/20 12:05:26;;;;;;;;;;;;;;;27.82;nan;101039.94;5083732;28;1962;-37
2022/08/20 12:07:52;;;;;;;;;;;;;;;27.84;nan;101039.81;5084029;28;1283;-41
2022/08/20 12:10:21;;;;;;;;;;;;;;;27.91;nan;101031.09;5067546;28;1153;-37
2022/08/20 12:12:48;;;;;;;;;;;;;;;27.87;nan;101031.50;5077479;28;1300;-40
2022/08/20 12:15:15;;;;;;;;;;;;;;;27.93;nan;101031.81;5068116;28;1039;-36
2022/08/20 12:17:42;;;;;;;;;;;;;;;27.95;nan;101034.31;5072676;28;1280;-39
2022/08/20 12:20:11;;;;;;;;;;;;;;;27.90;nan;101031.25;5070998;28;1579;-39
2022/08/20 12:22:38;;;;;;;;;;;;;;;28.04;nan;101020.97;5072194;28;1260;-41
2022/08/20 12:25:05;;;;;;;;;;;;;;;28.12;nan;101022.94;5069303;28;1902;-37
2022/08/20 12:27:33;;;;;;;;;;;;;;;28.11;nan;101031.97;5071443;28;1270;-40
2022/08/20 12:30:02;;;;;;;;;;;;;;;28.11;nan;101026.63;5069385;28;1136;-38
2022/08/20 12:32:30;;;;;;;;;;;;;;;28.08;nan;101017.03;5070867;28;1252;-40
2022/08/20 12:34:57;;;;;;;;;;;;;;;28.16;nan;101021.69;5070660;28;1108;-45
2022/08/20 12:37:25;;;;;;;;;;;;;;;28.20;nan;101025.78;5073950;28;1654;-44
2022/08/20 12:39:53;;;;;;;;;;;;;;;28.29;nan;101016.88;5063935;28;1125;-37
2022/08/20 12:42:20;;;;;;;;;;;;;;;28.18;nan;101022.38;5072189;28;1249;-38
2022/08/20 12:44:47;;;;;;;;;;;;;;;28.21;nan;101014.06;5071505;28;1934;-39
2022/08/20 12:47:14;;;;;;;;;;;;;;;28.30;nan;101013.19;5071695;28;1355;-38
2022/08/20 12:49:44;;;;;;;;;;;;;;;28.32;nan;101018.44;5071836;28;993;-38
2022/08/20 12:52:11;;;;;;;;;;;;;;;28.34;nan;101005.72;5070349;28;1253;-42
2022/08/20 12:54:38;;;;;;;;;;;;;;;28.38;nan;101013.34;5065743;28;1007;-40
2022/08/20 12:57:05;;;;;;;;;;;;;;;28.31;nan;100998.81;5072358;28;993;-41
2022/08/20 12:59:33;;;;;;;;;;;;;;;28.30;nan;100990.94;5066404;28;1603;-45
2022/08/20 13:02:00;;;;;;;;;;;;;;;28.33;nan;100996.84;5072164;28;1042;-37
2022/08/20 13:04:32;;;;;;;;;;;;;;;28.41;nan;100994.31;5067640;28;1985;-40
2022/08/20 13:07:00;;;;;;;;;;;;;;;28.30;nan;100989.09;5071675;28;754;-41
2022/08/20 13:09:26;;;;;;;;;;;;;;;28.34;nan;100982.47;5067540;28;1181;-44
2022/08/20 13:11:53;;;;;;;;;;;;;;;28.37;nan;100987.53;5076666;28;1189;-41
2022/08/20 13:14:20;;;;;;;;;;;;;;;28.47;nan;100977.66;5067899;28;1279;-41
2022/08/20 13:16:46;;;;;;;;;;;;;;;28.40;nan;100981.88;5071296;28;889;-41
2022/08/20 13:19:13;;;;;;;;;;;;;;;28.36;nan;100977.78;5068770;28;1296;-42
2022/08/20 13:21:40;;;;;;;;;;;;;;;28.40;nan;100978.34;5071233;28;914;-39
2022/08/20 13:24:08;;;;;;;;;;;;;;;28.46;nan;100975.94;5069234;28;1314;-36